sensor_id;sensor_type;location;lat;lon;timestamp;temperature;humidity
37788;DHT22;23627;53.302;-6.362;2023-08-01T00:02:20;14.20;99.90
37788;DHT22;23627;53.302;-6.362;2023-08-01T00:04:46;14.20;99.90
37788;DHT22;23627;53.302;-6.362;2023-08-01T00:07:12;14.20;99.90
37788;DHT22;23627;53.302;-6.362;2023-08-01T00:09:38;14.20;99.90
37788;DHT22;23627;53.302;-6.362;2023-08-01T00:12:04;14.20;99.90
37788;DHT22;23627;53.302;-6.362;2023-08-01T00:14:29;14.10;99.90
37788;DHT22;23627;53.302;-6.362;2023-08-01T00:16:55;14.10;99.90
37788;DHT22;23627;53.302;-6.362;2023-08-01T00:19:21;14.10;99.90
37788;DHT22;23627;53.302;-6.362;2023-08-01T00:21:46;14.10;99.90
37788;DHT22;23627;53.302;-6.362;2023-08-01T00:24:12;14.10;99.90
37788;DHT22;23627;53.302;-6.362;2023-08-01T00:26:38;14.10;99.90
37788;DHT22;23627;53.302;-6.362;2023-08-01T00:29:04;14.10;99.90
37788;DHT22;23627;53.302;-6.362;2023-08-01T00:31:29;14.10;99.90
37788;DHT22;23627;53.302;-6.362;2023-08-01T00:33:55;14.10;99.90
37788;DHT22;23627;53.302;-6.362;2023-08-01T00:36:21;14.10;99.90
37788;DHT22;23627;53.302;-6.362;2023-08-01T00:38:47;14.20;99.90
37788;DHT22;23627;53.302;-6.362;2023-08-01T00:41:14;14.10;99.90
37788;DHT22;23627;53.302;-6.362;2023-08-01T00:43:40;14.10;99.90
37788;DHT22;23627;53.302;-6.362;2023-08-01T00:46:06;14.10;99.90
37788;DHT22;23627;53.302;-6.362;2023-08-01T00:48:33;14.10;99.90
37788;DHT22;23627;53.302;-6.362;2023-08-01T00:51:06;14.10;99.90
37788;DHT22;23627;53.302;-6.362;2023-08-01T00:53:34;14.10;99.90
37788;DHT22;23627;53.302;-6.362;2023-08-01T00:56:00;14.10;99.90
37788;DHT22;23627;53.302;-6.362;2023-08-01T00:58:27;14.10;99.90
37788;DHT22;23627;53.302;-6.362;2023-08-01T01:00:53;14.10;99.90
37788;DHT22;23627;53.302;-6.362;2023-08-01T01:03:18;14.10;99.90
37788;DHT22;23627;53.302;-6.362;2023-08-01T01:05:56;14.00;99.90
37788;DHT22;23627;53.302;-6.362;2023-08-01T01:08:22;14.00;99.90
37788;DHT22;23627;53.302;-6.362;2023-08-01T01:10:48;14.00;99.90
37788;DHT22;23627;53.302;-6.362;2023-08-01T01:13:14;14.00;99.90
37788;DHT22;23627;53.302;-6.362;2023-08-01T01:15:40;14.00;99.90
37788;DHT22;23627;53.302;-6.362;2023-08-01T01:18:05;13.90;99.90
37788;DHT22;23627;53.302;-6.362;2023-08-01T01:20:35;14.00;99.90
37788;DHT22;23627;53.302;-6.362;2023-08-01T01:23:03;13.90;99.90
37788;DHT22;23627;53.302;-6.362;2023-08-01T01:25:30;13.90;99.90
37788;DHT22;23627;53.302;-6.362;2023-08-01T01:27:57;13.90;99.90
37788;DHT22;23627;53.302;-6.362;2023-08-01T01:30:23;13.90;99.90
37788;DHT22;23627;53.302;-6.362;2023-08-01T01:32:50;13.90;99.90
37788;DHT22;23627;53.302;-6.362;2023-08-01T01:35:16;13.90;99.90
37788;DHT22;23627;53.302;-6.362;2023-08-01T01:37:42;13.90;99.90
37788;DHT22;23627;53.302;-6.362;2023-08-01T01:40:08;13.90;99.90
37788;DHT22;23627;53.302;-6.362;2023-08-01T01:42:34;13.90;99.90
37788;DHT22;23627;53.302;-6.362;2023-08-01T01:45:00;13.90;99.90
37788;DHT22;23627;53.302;-6.362;2023-08-01T01:47:26;13.90;99.90
37788;DHT22;23627;53.302;-6.362;2023-08-01T01:49:51;13.90;99.90
37788;DHT22;23627;53.302;-6.362;2023-08-01T01:52:17;13.80;99.90
37788;DHT22;23627;53.302;-6.362;2023-08-01T01:54:43;13.80;99.90
37788;DHT22;23627;53.302;-6.362;2023-08-01T01:57:09;13.80;99.90
37788;DHT22;23627;53.302;-6.362;2023-08-01T01:59:34;13.80;99.90
37788;DHT22;23627;53.302;-6.362;2023-08-01T02:02:00;13.80;99.90
37788;DHT22;23627;53.302;-6.362;2023-08-01T02:04:26;13.70;99.90
37788;DHT22;23627;53.302;-6.362;2023-08-01T02:06:51;13.70;99.90
37788;DHT22;23627;53.302;-6.362;2023-08-01T02:09:20;13.70;99.90
37788;DHT22;23627;53.302;-6.362;2023-08-01T02:11:45;13.60;99.90
37788;DHT22;23627;53.302;-6.362;2023-08-01T02:14:11;13.70;99.90
37788;DHT22;23627;53.302;-6.362;2023-08-01T02:16:37;13.60;99.90
37788;DHT22;23627;53.302;-6.362;2023-08-01T02:19:03;13.60;99.90
37788;DHT22;23627;53.302;-6.362;2023-08-01T02:21:28;13.60;99.90
37788;DHT22;23627;53.302;-6.362;2023-08-01T02:23:55;13.60;99.90
37788;DHT22;23627;53.302;-6.362;2023-08-01T02:26:21;13.60;99.90
37788;DHT22;23627;53.302;-6.362;2023-08-01T02:28:48;13.60;99.90
37788;DHT22;23627;53.302;-6.362;2023-08-01T02:31:15;13.60;99.90
37788;DHT22;23627;53.302;-6.362;2023-08-01T02:33:41;13.60;99.90
37788;DHT22;23627;53.302;-6.362;2023-08-01T02:36:07;13.60;99.90
37788;DHT22;23627;53.302;-6.362;2023-08-01T02:38:32;13.50;99.90
37788;DHT22;23627;53.302;-6.362;2023-08-01T02:40:58;13.60;99.90
37788;DHT22;23627;53.302;-6.362;2023-08-01T02:43:24;13.50;99.90
37788;DHT22;23627;53.302;-6.362;2023-08-01T02:45:50;13.50;99.90
37788;DHT22;23627;53.302;-6.362;2023-08-01T02:48:16;13.50;99.90
37788;DHT22;23627;53.302;-6.362;2023-08-01T02:50:42;13.50;99.90
37788;DHT22;23627;53.302;-6.362;2023-08-01T02:53:08;13.50;99.90
37788;DHT22;23627;53.302;-6.362;2023-08-01T02:55:33;13.50;99.90
37788;DHT22;23627;53.302;-6.362;2023-08-01T02:57:59;13.40;99.90
37788;DHT22;23627;53.302;-6.362;2023-08-01T03:00:25;13.40;99.90
37788;DHT22;23627;53.302;-6.362;2023-08-01T03:02:51;13.40;99.90
37788;DHT22;23627;53.302;-6.362;2023-08-01T03:05:17;13.40;99.90
37788;DHT22;23627;53.302;-6.362;2023-08-01T03:07:43;13.40;99.90
37788;DHT22;23627;53.302;-6.362;2023-08-01T03:10:09;13.40;99.90
37788;DHT22;23627;53.302;-6.362;2023-08-01T03:12:36;13.40;99.90
37788;DHT22;23627;53.302;-6.362;2023-08-01T03:15:03;13.40;99.90
37788;DHT22;23627;53.302;-6.362;2023-08-01T03:17:29;13.40;99.90
37788;DHT22;23627;53.302;-6.362;2023-08-01T03:19:54;13.40;99.90
37788;DHT22;23627;53.302;-6.362;2023-08-01T03:22:20;13.40;99.90
37788;DHT22;23627;53.302;-6.362;2023-08-01T03:24:47;13.30;99.90
37788;DHT22;23627;53.302;-6.362;2023-08-01T03:27:12;13.30;99.90
37788;DHT22;23627;53.302;-6.362;2023-08-01T03:29:38;13.30;99.90
37788;DHT22;23627;53.302;-6.362;2023-08-01T03:32:04;13.30;99.90
37788;DHT22;23627;53.302;-6.362;2023-08-01T03:34:30;13.30;99.90
37788;DHT22;23627;53.302;-6.362;2023-08-01T03:36:56;13.30;99.90
37788;DHT22;23627;53.302;-6.362;2023-08-01T03:39:22;13.30;99.90
37788;DHT22;23627;53.302;-6.362;2023-08-01T03:41:47;13.30;99.90
37788;DHT22;23627;53.302;-6.362;2023-08-01T03:44:13;13.30;99.90
37788;DHT22;23627;53.302;-6.362;2023-08-01T03:46:40;13.30;99.90
37788;DHT22;23627;53.302;-6.362;2023-08-01T03:49:06;13.30;99.90
37788;DHT22;23627;53.302;-6.362;2023-08-01T03:51:32;13.30;99.90
37788;DHT22;23627;53.302;-6.362;2023-08-01T03:53:57;13.30;99.90
37788;DHT22;23627;53.302;-6.362;2023-08-01T03:56:23;13.30;99.90
37788;DHT22;23627;53.302;-6.362;2023-08-01T03:58:49;13.30;99.90
37788;DHT22;23627;53.302;-6.362;2023-08-01T04:01:14;13.30;99.90
37788;DHT22;23627;53.302;-6.362;2023-08-01T04:03:40;13.30;99.90
37788;DHT22;23627;53.302;-6.362;2023-08-01T04:06:06;13.30;99.90
37788;DHT22;23627;53.302;-6.362;2023-08-01T04:08:32;13.30;99.90
37788;DHT22;23627;53.302;-6.362;2023-08-01T04:10:57;13.30;99.90
37788;DHT22;23627;53.302;-6.362;2023-08-01T04:13:23;13.30;99.90
37788;DHT22;23627;53.302;-6.362;2023-08-01T04:15:49;13.30;99.90
37788;DHT22;23627;53.302;-6.362;2023-08-01T04:18:14;13.30;99.90
37788;DHT22;23627;53.302;-6.362;2023-08-01T04:20:40;13.20;99.90
37788;DHT22;23627;53.302;-6.362;2023-08-01T04:23:06;13.30;99.90
37788;DHT22;23627;53.302;-6.362;2023-08-01T04:25:32;13.20;99.90
37788;DHT22;23627;53.302;-6.362;2023-08-01T04:27:57;13.20;99.90
37788;DHT22;23627;53.302;-6.362;2023-08-01T04:30:23;13.20;99.90
37788;DHT22;23627;53.302;-6.362;2023-08-01T04:32:49;13.30;99.90
37788;DHT22;23627;53.302;-6.362;2023-08-01T04:35:14;13.20;99.90
37788;DHT22;23627;53.302;-6.362;2023-08-01T04:37:40;13.30;99.90
37788;DHT22;23627;53.302;-6.362;2023-08-01T04:40:06;13.20;99.90
37788;DHT22;23627;53.302;-6.362;2023-08-01T04:42:32;13.20;99.90
37788;DHT22;23627;53.302;-6.362;2023-08-01T04:44:58;13.20;99.90
37788;DHT22;23627;53.302;-6.362;2023-08-01T04:47:24;13.20;99.90
37788;DHT22;23627;53.302;-6.362;2023-08-01T04:49:49;13.20;99.90
37788;DHT22;23627;53.302;-6.362;2023-08-01T04:52:15;13.20;99.90
37788;DHT22;23627;53.302;-6.362;2023-08-01T04:54:41;13.20;99.90
37788;DHT22;23627;53.302;-6.362;2023-08-01T04:57:07;13.20;99.90
37788;DHT22;23627;53.302;-6.362;2023-08-01T04:59:32;13.20;99.90
37788;DHT22;23627;53.302;-6.362;2023-08-01T05:01:58;13.20;99.90
37788;DHT22;23627;53.302;-6.362;2023-08-01T05:04:24;13.20;99.90
37788;DHT22;23627;53.302;-6.362;2023-08-01T05:06:50;13.20;99.90
37788;DHT22;23627;53.302;-6.362;2023-08-01T05:09:16;13.20;99.90
37788;DHT22;23627;53.302;-6.362;2023-08-01T05:11:42;13.30;99.90
37788;DHT22;23627;53.302;-6.362;2023-08-01T05:14:07;13.20;99.90
37788;DHT22;23627;53.302;-6.362;2023-08-01T05:16:33;13.30;99.90
37788;DHT22;23627;53.302;-6.362;2023-08-01T05:18:59;13.30;99.90
37788;DHT22;23627;53.302;-6.362;2023-08-01T05:21:24;13.30;99.90
37788;DHT22;23627;53.302;-6.362;2023-08-01T05:23:50;13.30;99.90
37788;DHT22;23627;53.302;-6.362;2023-08-01T05:26:16;13.30;99.90
37788;DHT22;23627;53.302;-6.362;2023-08-01T05:28:42;13.30;99.90
37788;DHT22;23627;53.302;-6.362;2023-08-01T05:31:09;13.30;99.90
37788;DHT22;23627;53.302;-6.362;2023-08-01T05:33:35;13.30;99.90
37788;DHT22;23627;53.302;-6.362;2023-08-01T05:36:00;13.30;99.90
37788;DHT22;23627;53.302;-6.362;2023-08-01T05:38:26;13.30;99.90
37788;DHT22;23627;53.302;-6.362;2023-08-01T05:40:52;13.40;99.90
37788;DHT22;23627;53.302;-6.362;2023-08-01T05:43:18;13.40;99.90
37788;DHT22;23627;53.302;-6.362;2023-08-01T05:45:43;13.40;99.90
37788;DHT22;23627;53.302;-6.362;2023-08-01T05:48:09;13.40;99.90
37788;DHT22;23627;53.302;-6.362;2023-08-01T05:50:36;13.40;99.90
37788;DHT22;23627;53.302;-6.362;2023-08-01T05:53:01;13.40;99.90
37788;DHT22;23627;53.302;-6.362;2023-08-01T05:55:27;13.40;99.90
37788;DHT22;23627;53.302;-6.362;2023-08-01T05:57:53;13.50;99.90
37788;DHT22;23627;53.302;-6.362;2023-08-01T06:00:19;13.50;99.90
37788;DHT22;23627;53.302;-6.362;2023-08-01T06:02:48;13.50;99.90
37788;DHT22;23627;53.302;-6.362;2023-08-01T06:05:13;13.50;99.90
37788;DHT22;23627;53.302;-6.362;2023-08-01T06:07:39;13.50;99.90
37788;DHT22;23627;53.302;-6.362;2023-08-01T06:10:05;13.50;99.90
37788;DHT22;23627;53.302;-6.362;2023-08-01T06:12:31;13.60;99.90
37788;DHT22;23627;53.302;-6.362;2023-08-01T06:14:57;13.60;99.90
37788;DHT22;23627;53.302;-6.362;2023-08-01T06:17:22;13.60;99.90
37788;DHT22;23627;53.302;-6.362;2023-08-01T06:19:48;13.60;99.90
37788;DHT22;23627;53.302;-6.362;2023-08-01T06:22:15;13.60;99.90
37788;DHT22;23627;53.302;-6.362;2023-08-01T06:24:41;13.60;99.90
37788;DHT22;23627;53.302;-6.362;2023-08-01T06:27:07;13.60;99.90
37788;DHT22;23627;53.302;-6.362;2023-08-01T06:29:32;13.70;99.90
37788;DHT22;23627;53.302;-6.362;2023-08-01T06:31:58;13.70;99.90
37788;DHT22;23627;53.302;-6.362;2023-08-01T06:34:24;13.70;99.90
37788;DHT22;23627;53.302;-6.362;2023-08-01T06:36:50;13.80;99.90
37788;DHT22;23627;53.302;-6.362;2023-08-01T06:39:16;13.90;99.90
37788;DHT22;23627;53.302;-6.362;2023-08-01T06:41:42;13.90;99.90
37788;DHT22;23627;53.302;-6.362;2023-08-01T06:44:07;13.90;99.90
37788;DHT22;23627;53.302;-6.362;2023-08-01T06:46:33;14.00;99.90
37788;DHT22;23627;53.302;-6.362;2023-08-01T06:48:59;14.00;99.90
37788;DHT22;23627;53.302;-6.362;2023-08-01T06:51:25;14.00;99.90
37788;DHT22;23627;53.302;-6.362;2023-08-01T06:53:50;14.00;99.90
37788;DHT22;23627;53.302;-6.362;2023-08-01T07:16:59;14.60;99.90
37788;DHT22;23627;53.302;-6.362;2023-08-01T07:56:19;16.80;99.90
37788;DHT22;23627;53.302;-6.362;2023-08-01T10:26:05;19.60;99.90
37788;DHT22;23627;53.302;-6.362;2023-08-01T16:56:57;20.40;99.90
37788;DHT22;23627;53.302;-6.362;2023-08-01T17:02:03;20.60;99.90
37788;DHT22;23627;53.302;-6.362;2023-08-01T17:04:28;20.40;99.90
37788;DHT22;23627;53.302;-6.362;2023-08-01T17:06:54;20.40;99.90
37788;DHT22;23627;53.302;-6.362;2023-08-01T17:09:20;20.30;99.90
37788;DHT22;23627;53.302;-6.362;2023-08-01T17:11:46;20.20;99.90
37788;DHT22;23627;53.302;-6.362;2023-08-01T17:14:14;20.10;99.90
37788;DHT22;23627;53.302;-6.362;2023-08-01T17:16:41;20.10;99.90
37788;DHT22;23627;53.302;-6.362;2023-08-01T17:19:07;20.10;99.90
37788;DHT22;23627;53.302;-6.362;2023-08-01T17:21:33;20.10;99.90
37788;DHT22;23627;53.302;-6.362;2023-08-01T17:23:58;20.10;99.90
37788;DHT22;23627;53.302;-6.362;2023-08-01T17:26:25;20.10;99.90
37788;DHT22;23627;53.302;-6.362;2023-08-01T17:28:50;20.10;99.90
37788;DHT22;23627;53.302;-6.362;2023-08-01T17:31:16;19.90;99.90
37788;DHT22;23627;53.302;-6.362;2023-08-01T17:33:45;20.00;99.90
37788;DHT22;23627;53.302;-6.362;2023-08-01T17:36:11;19.90;99.90
37788;DHT22;23627;53.302;-6.362;2023-08-01T17:38:37;19.90;99.90
37788;DHT22;23627;53.302;-6.362;2023-08-01T17:41:22;19.80;99.90
37788;DHT22;23627;53.302;-6.362;2023-08-01T17:43:49;19.80;99.90
37788;DHT22;23627;53.302;-6.362;2023-08-01T17:46:15;19.80;99.90
37788;DHT22;23627;53.302;-6.362;2023-08-01T17:48:41;19.80;99.90
37788;DHT22;23627;53.302;-6.362;2023-08-01T17:51:08;19.90;99.90
37788;DHT22;23627;53.302;-6.362;2023-08-01T17:53:35;19.90;99.90
37788;DHT22;23627;53.302;-6.362;2023-08-01T17:56:03;19.90;99.90
37788;DHT22;23627;53.302;-6.362;2023-08-01T17:58:29;19.90;99.90
37788;DHT22;23627;53.302;-6.362;2023-08-01T18:00:55;19.80;99.90
37788;DHT22;23627;53.302;-6.362;2023-08-01T18:03:21;19.80;99.90
37788;DHT22;23627;53.302;-6.362;2023-08-01T18:05:46;19.80;99.90
37788;DHT22;23627;53.302;-6.362;2023-08-01T18:08:12;19.70;99.90
37788;DHT22;23627;53.302;-6.362;2023-08-01T18:10:39;19.70;99.90
37788;DHT22;23627;53.302;-6.362;2023-08-01T18:13:06;19.60;99.90
37788;DHT22;23627;53.302;-6.362;2023-08-01T18:15:39;19.50;99.90
37788;DHT22;23627;53.302;-6.362;2023-08-01T18:18:07;19.40;99.90
37788;DHT22;23627;53.302;-6.362;2023-08-01T18:20:34;19.30;99.90
37788;DHT22;23627;53.302;-6.362;2023-08-01T18:23:00;19.30;99.90
37788;DHT22;23627;53.302;-6.362;2023-08-01T18:25:26;19.20;99.90
37788;DHT22;23627;53.302;-6.362;2023-08-01T18:27:51;19.10;99.90
37788;DHT22;23627;53.302;-6.362;2023-08-01T18:30:17;19.10;99.90
37788;DHT22;23627;53.302;-6.362;2023-08-01T18:32:43;19.00;99.90
37788;DHT22;23627;53.302;-6.362;2023-08-01T18:35:09;18.90;99.90
37788;DHT22;23627;53.302;-6.362;2023-08-01T18:37:35;18.90;99.90
37788;DHT22;23627;53.302;-6.362;2023-08-01T18:40:01;18.80;99.90
37788;DHT22;23627;53.302;-6.362;2023-08-01T18:42:29;18.70;99.90
37788;DHT22;23627;53.302;-6.362;2023-08-01T18:44:54;18.70;99.90
37788;DHT22;23627;53.302;-6.362;2023-08-01T18:47:20;18.70;99.90
37788;DHT22;23627;53.302;-6.362;2023-08-01T18:49:46;18.60;99.90
37788;DHT22;23627;53.302;-6.362;2023-08-01T18:52:15;18.60;99.90
37788;DHT22;23627;53.302;-6.362;2023-08-01T18:54:41;18.60;99.90
37788;DHT22;23627;53.302;-6.362;2023-08-01T18:57:07;18.60;99.90
37788;DHT22;23627;53.302;-6.362;2023-08-01T18:59:33;18.60;99.90
37788;DHT22;23627;53.302;-6.362;2023-08-01T19:01:59;18.50;99.90
37788;DHT22;23627;53.302;-6.362;2023-08-01T19:04:29;18.50;99.90
37788;DHT22;23627;53.302;-6.362;2023-08-01T19:07:01;18.40;99.90
37788;DHT22;23627;53.302;-6.362;2023-08-01T19:09:27;18.40;99.90
37788;DHT22;23627;53.302;-6.362;2023-08-01T19:11:53;18.40;99.90
37788;DHT22;23627;53.302;-6.362;2023-08-01T19:14:22;18.30;99.90
37788;DHT22;23627;53.302;-6.362;2023-08-01T19:16:49;18.30;99.90
37788;DHT22;23627;53.302;-6.362;2023-08-01T19:19:25;18.20;99.90
37788;DHT22;23627;53.302;-6.362;2023-08-01T19:21:52;18.20;99.90
37788;DHT22;23627;53.302;-6.362;2023-08-01T19:24:19;18.20;99.90
37788;DHT22;23627;53.302;-6.362;2023-08-01T19:26:48;18.10;99.90
37788;DHT22;23627;53.302;-6.362;2023-08-01T19:29:15;18.10;99.90
37788;DHT22;23627;53.302;-6.362;2023-08-01T19:31:42;18.00;99.90
37788;DHT22;23627;53.302;-6.362;2023-08-01T19:34:09;18.00;99.90
37788;DHT22;23627;53.302;-6.362;2023-08-01T19:36:42;17.90;99.90
37788;DHT22;23627;53.302;-6.362;2023-08-01T19:39:10;17.90;99.90
37788;DHT22;23627;53.302;-6.362;2023-08-01T19:41:39;17.80;99.90
37788;DHT22;23627;53.302;-6.362;2023-08-01T19:44:05;17.90;99.90
37788;DHT22;23627;53.302;-6.362;2023-08-01T19:46:31;17.80;99.90
37788;DHT22;23627;53.302;-6.362;2023-08-01T19:48:57;17.80;99.90
37788;DHT22;23627;53.302;-6.362;2023-08-01T19:51:24;17.80;99.90
37788;DHT22;23627;53.302;-6.362;2023-08-01T19:53:50;17.80;99.90
37788;DHT22;23627;53.302;-6.362;2023-08-01T19:56:16;17.70;99.90
37788;DHT22;23627;53.302;-6.362;2023-08-01T19:58:43;17.70;99.90
37788;DHT22;23627;53.302;-6.362;2023-08-01T20:01:09;17.60;99.90
37788;DHT22;23627;53.302;-6.362;2023-08-01T20:03:35;17.60;99.90
37788;DHT22;23627;53.302;-6.362;2023-08-01T20:06:01;17.60;99.90
37788;DHT22;23627;53.302;-6.362;2023-08-01T20:08:27;17.60;99.90
37788;DHT22;23627;53.302;-6.362;2023-08-01T20:10:59;17.50;99.90
37788;DHT22;23627;53.302;-6.362;2023-08-01T20:13:25;17.50;99.90
37788;DHT22;23627;53.302;-6.362;2023-08-01T20:15:52;17.50;99.90
37788;DHT22;23627;53.302;-6.362;2023-08-01T20:18:18;17.50;99.90
37788;DHT22;23627;53.302;-6.362;2023-08-01T20:20:47;17.50;99.90
37788;DHT22;23627;53.302;-6.362;2023-08-01T20:23:14;17.50;99.90
37788;DHT22;23627;53.302;-6.362;2023-08-01T20:25:41;17.50;99.90
37788;DHT22;23627;53.302;-6.362;2023-08-01T20:28:08;17.40;99.90
37788;DHT22;23627;53.302;-6.362;2023-08-01T20:30:34;17.40;99.90
37788;DHT22;23627;53.302;-6.362;2023-08-01T20:33:01;17.50;99.90
37788;DHT22;23627;53.302;-6.362;2023-08-01T20:35:28;17.50;99.90
37788;DHT22;23627;53.302;-6.362;2023-08-01T20:37:54;17.40;99.90
37788;DHT22;23627;53.302;-6.362;2023-08-01T20:40:19;17.40;99.90
37788;DHT22;23627;53.302;-6.362;2023-08-01T20:42:45;17.30;99.90
37788;DHT22;23627;53.302;-6.362;2023-08-01T20:45:13;17.30;99.90
37788;DHT22;23627;53.302;-6.362;2023-08-01T20:47:39;17.30;99.90
37788;DHT22;23627;53.302;-6.362;2023-08-01T20:50:05;17.30;99.90
37788;DHT22;23627;53.302;-6.362;2023-08-01T20:52:31;17.30;99.90
37788;DHT22;23627;53.302;-6.362;2023-08-01T20:54:56;17.20;99.90
37788;DHT22;23627;53.302;-6.362;2023-08-01T20:57:22;17.20;99.90
37788;DHT22;23627;53.302;-6.362;2023-08-01T20:59:48;17.20;99.90
37788;DHT22;23627;53.302;-6.362;2023-08-01T21:02:14;17.20;99.90
37788;DHT22;23627;53.302;-6.362;2023-08-01T21:04:39;17.20;99.90
37788;DHT22;23627;53.302;-6.362;2023-08-01T21:07:05;17.20;99.90
37788;DHT22;23627;53.302;-6.362;2023-08-01T21:09:32;17.10;99.90
37788;DHT22;23627;53.302;-6.362;2023-08-01T21:11:58;17.10;99.90
37788;DHT22;23627;53.302;-6.362;2023-08-01T21:14:24;17.10;99.90
37788;DHT22;23627;53.302;-6.362;2023-08-01T21:16:53;17.00;99.90
37788;DHT22;23627;53.302;-6.362;2023-08-01T21:19:19;17.00;99.90
37788;DHT22;23627;53.302;-6.362;2023-08-01T21:21:45;17.00;99.90
37788;DHT22;23627;53.302;-6.362;2023-08-01T21:24:12;16.90;99.90
37788;DHT22;23627;53.302;-6.362;2023-08-01T21:26:38;16.90;99.90
37788;DHT22;23627;53.302;-6.362;2023-08-01T21:29:04;16.90;99.90
37788;DHT22;23627;53.302;-6.362;2023-08-01T21:31:30;16.90;99.90
37788;DHT22;23627;53.302;-6.362;2023-08-01T21:33:56;16.80;99.90
37788;DHT22;23627;53.302;-6.362;2023-08-01T21:36:21;16.80;99.90
37788;DHT22;23627;53.302;-6.362;2023-08-01T21:38:50;16.70;99.90
37788;DHT22;23627;53.302;-6.362;2023-08-01T21:41:17;16.60;99.90
37788;DHT22;23627;53.302;-6.362;2023-08-01T21:43:43;16.60;99.90
37788;DHT22;23627;53.302;-6.362;2023-08-01T21:46:12;16.50;99.90
37788;DHT22;23627;53.302;-6.362;2023-08-01T21:48:38;16.50;99.90
37788;DHT22;23627;53.302;-6.362;2023-08-01T21:51:04;16.40;99.90
37788;DHT22;23627;53.302;-6.362;2023-08-01T21:53:33;16.30;99.90
37788;DHT22;23627;53.302;-6.362;2023-08-01T21:55:59;16.20;99.90
37788;DHT22;23627;53.302;-6.362;2023-08-01T21:58:28;16.20;99.90
37788;DHT22;23627;53.302;-6.362;2023-08-01T22:00:54;16.10;99.90
37788;DHT22;23627;53.302;-6.362;2023-08-01T22:03:20;16.10;99.90
37788;DHT22;23627;53.302;-6.362;2023-08-01T22:05:46;16.10;99.90
37788;DHT22;23627;53.302;-6.362;2023-08-01T22:08:28;16.10;99.90
37788;DHT22;23627;53.302;-6.362;2023-08-01T22:10:55;16.00;99.90
37788;DHT22;23627;53.302;-6.362;2023-08-01T22:13:22;16.00;99.90
37788;DHT22;23627;53.302;-6.362;2023-08-01T22:15:48;16.00;99.90
37788;DHT22;23627;53.302;-6.362;2023-08-01T22:18:14;16.00;99.90
37788;DHT22;23627;53.302;-6.362;2023-08-01T22:20:59;16.00;99.90
37788;DHT22;23627;53.302;-6.362;2023-08-01T22:23:26;15.90;99.90
37788;DHT22;23627;53.302;-6.362;2023-08-01T22:26:17;15.90;99.90
37788;DHT22;23627;53.302;-6.362;2023-08-01T22:28:46;15.90;99.90
37788;DHT22;23627;53.302;-6.362;2023-08-01T22:31:28;15.90;99.90
